Station History


Daily Summary for March 8, 2012 Units:  English    Metric   Both
« Previous Day
Next Day »
Daily Weekly Monthly Yearly Custom
  High: Low: Average:
Temperature: 76.8 °F 31.9 °F 52.2 °F
Dew Point: 35.1 °F 13.6 °F 28.7 °F
Humidity: 88% 9% 49%
Wind Speed: 5.0mph 0.0mph 2mph
Wind Gust: 5.0mph - -
Wind- - SW
Pressure: 30.32 in 30.22 in -
Precipitation: 0.00 in    
Historical Graphs
 
 
Tabular Data for March 8, 2012
Time Temperature Dew Point Pressure Wind Wind Speed Wind Gust Humidity Rainfall Rate (Hourly)
00:01 38.5 °F 29.2 °F 30.22 in Calm     69% 0.00 in
00:06 38.4 °F 29.5 °F 30.22 in Calm     70% 0.00 in
00:11 38.1 °F 28.8 °F 30.22 in Calm     69% 0.00 in
00:16 38.0 °F 29.1 °F 30.22 in Calm     70% 0.00 in
00:21 37.8 °F 28.9 °F 30.22 in Calm     70% 0.00 in
00:26 37.6 °F 29.0 °F 30.22 in Calm     71% 0.00 in
00:31 37.7 °F 29.5 °F 30.22 in Calm     72% 0.00 in
00:36 37.5 °F 28.9 °F 30.22 in Calm     71% 0.00 in
00:41 37.2 °F 28.7 °F 30.22 in Calm     71% 0.00 in
00:46 37.1 °F 28.9 °F 30.22 in Calm     72% 0.00 in
00:51 36.8 °F 29.0 °F 30.22 in Calm     73% 0.00 in
00:56 36.5 °F 28.7 °F 30.22 in Calm     73% 0.00 in
01:01 36.2 °F 28.7 °F 30.22 in Calm     74% 0.00 in
01:06 36.0 °F 28.8 °F 30.22 in Calm     75% 0.00 in
01:11 35.8 °F 28.6 °F 30.22 in Calm     75% 0.00 in
01:16 35.5 °F 28.7 °F 30.23 in Calm     76% 0.00 in
01:21 35.4 °F 28.9 °F 30.23 in Calm     77% 0.00 in
01:26 35.3 °F 29.1 °F 30.23 in Calm     78% 0.00 in
01:31 35.2 °F 29.0 °F 30.23 in Calm     78% 0.00 in
01:36 35.1 °F 28.9 °F 30.23 in Calm     78% 0.00 in
01:41 35.0 °F 28.8 °F 30.23 in Calm     78% 0.00 in
01:46 35.0 °F 29.1 °F 30.23 in Calm     79% 0.00 in
01:51 35.7 °F 30.1 °F 30.23 in South 1.1 mph   80% 0.00 in
01:56 36.0 °F 29.8 °F 30.23 in Calm     78% 0.00 in
02:01 36.0 °F 29.5 °F 30.23 in Calm     77% 0.00 in
02:06 35.9 °F 29.4 °F 30.23 in Calm     77% 0.00 in
02:11 35.7 °F 29.2 °F 30.23 in Calm     77% 0.00 in
02:16 35.6 °F 29.1 °F 30.23 in Calm     77% 0.00 in
02:21 35.5 °F 29.0 °F 30.23 in Calm     77% 0.00 in
02:26 35.4 °F 28.9 °F 30.23 in Calm     77% 0.00 in
02:31 35.6 °F 29.1 °F 30.23 in Calm     77% 0.00 in
02:36 35.6 °F 29.1 °F 30.23 in Calm     77% 0.00 in
02:41 35.8 °F 29.0 °F 30.23 in Calm     76% 0.00 in
02:46 35.8 °F 29.0 °F 30.23 in Calm     76% 0.00 in
02:51 35.6 °F 28.8 °F 30.23 in Calm     76% 0.00 in
02:56 35.6 °F 28.8 °F 30.23 in SE 1.0 mph   76% 0.00 in
03:01 36.1 °F 29.3 °F 30.23 in ESE 1.1 mph   76% 0.00 in
03:06 36.3 °F 29.1 °F 30.23 in ESE 1.1 mph   75% 0.00 in
03:11 36.3 °F 29.1 °F 30.23 in Calm     75% 0.00 in
03:16 36.0 °F 28.8 °F 30.23 in Calm     75% 0.00 in
03:21 35.8 °F 28.6 °F 30.23 in Calm     75% 0.00 in
03:26 35.6 °F 28.5 °F 30.23 in Calm     75% 0.00 in
03:31 35.3 °F 28.5 °F 30.24 in Calm     76% 0.00 in
03:36 35.0 °F 28.2 °F 30.24 in Calm     76% 0.00 in
03:41 34.9 °F 28.4 °F 30.24 in Calm     77% 0.00 in
03:46 34.6 °F 28.1 °F 30.24 in Calm     77% 0.00 in
03:51 34.5 °F 28.3 °F 30.24 in Calm     78% 0.00 in
03:56 34.4 °F 28.2 °F 30.24 in Calm     78% 0.00 in
04:02 34.2 °F 28.1 °F 30.24 in Calm     78% 0.00 in
04:07 34.2 °F 28.4 °F 30.24 in Calm     79% 0.00 in
04:12 34.3 °F 28.2 °F 30.24 in Calm     78% 0.00 in
04:17 33.9 °F 27.8 °F 30.24 in Calm     78% 0.00 in
04:22 33.5 °F 27.7 °F 30.24 in Calm     79% 0.00 in
04:27 33.2 °F 27.4 °F 30.24 in Calm     79% 0.00 in
04:32 32.9 °F 27.4 °F 30.24 in Calm     80% 0.00 in
04:37 32.6 °F 27.7 °F 30.24 in Calm     82% 0.00 in
04:42 32.5 °F 27.9 °F 30.24 in Calm     83% 0.00 in
04:47 32.7 °F 28.4 °F 30.24 in Calm     84% 0.00 in
04:52 32.9 °F 28.6 °F 30.24 in Calm     84% 0.00 in
04:57 33.2 °F 28.9 °F 30.24 in Calm     84% 0.00 in
05:02 33.4 °F 29.1 °F 30.24 in Calm     84% 0.00 in
05:07 33.6 °F 29.3 °F 30.24 in Calm     84% 0.00 in
05:12 33.6 °F 29.3 °F 30.24 in Calm     84% 0.00 in
05:17 33.5 °F 28.9 °F 30.24 in Calm     83% 0.00 in
05:22 33.3 °F 29.0 °F 30.25 in Calm     84% 0.00 in
05:27 33.3 °F 29.3 °F 30.25 in Calm     85% 0.00 in
05:33 33.3 °F 29.3 °F 30.25 in Calm     85% 0.00 in
05:38 33.3 °F 29.0 °F 30.25 in Calm     84% 0.00 in
05:43 33.1 °F 28.8 °F 30.26 in Calm     84% 0.00 in
05:48 32.9 °F 28.6 °F 30.26 in Calm     84% 0.00 in
05:53 33.1 °F 29.4 °F 30.26 in Calm     86% 0.00 in
05:58 33.3 °F 29.6 °F 30.27 in Calm     86% 0.00 in
06:03 33.4 °F 29.4 °F 30.27 in Calm     85% 0.00 in
06:08 33.4 °F 29.4 °F 30.28 in Calm     85% 0.00 in
06:13 33.3 °F 29.3 °F 30.27 in Calm     85% 0.00 in
06:18 33.2 °F 28.9 °F 30.28 in Calm     84% 0.00 in
06:23 32.9 °F 28.6 °F 30.28 in Calm     84% 0.00 in
06:28 32.7 °F 28.4 °F 30.28 in Calm     84% 0.00 in
06:34 32.3 °F 28.3 °F 30.29 in Calm     85% 0.00 in
06:39 32.1 °F 28.1 °F 30.29 in Calm     85% 0.00 in
06:44 31.9 °F 28.2 °F 30.29 in Calm     86% 0.00 in
06:49 31.9 °F 28.5 °F 30.30 in Calm     87% 0.00 in
06:54 32.1 °F 28.9 °F 30.30 in Calm     88% 0.00 in
06:59 32.6 °F 29.4 °F 30.30 in Calm     88% 0.00 in
07:04 33.3 °F 29.8 °F 30.30 in Calm     87% 0.00 in
07:09 33.9 °F 30.2 °F 30.30 in Calm     86% 0.00 in
07:14 34.4 °F 30.4 °F 30.31 in Calm     85% 0.00 in
07:19 35.0 °F 30.9 °F 30.31 in Calm     85% 0.00 in
07:24 36.1 °F 32.0 °F 30.31 in Calm     85% 0.00 in
07:29 37.0 °F 32.3 °F 30.31 in Calm     83% 0.00 in
07:34 37.8 °F 32.5 °F 30.31 in Calm     81% 0.00 in
07:39 38.9 °F 32.9 °F 30.31 in Calm     79% 0.00 in
07:44 40.1 °F 33.1 °F 30.31 in Calm     76% 0.00 in
07:49 41.1 °F 33.8 °F 30.31 in Calm     75% 0.00 in
07:54 42.2 °F 33.8 °F 30.31 in Calm     72% 0.00 in
07:59 43.2 °F 34.1 °F 30.31 in Calm     70% 0.00 in
08:04 44.0 °F 33.7 °F 30.31 in Calm     67% 0.00 in
08:09 44.8 °F 33.7 °F 30.31 in Calm     65% 0.00 in
08:14 45.7 °F 33.0 °F 30.31 in Calm     61% 0.00 in
08:19 46.6 °F 32.2 °F 30.31 in Calm     57% 0.00 in
08:24 47.3 °F 31.5 °F 30.30 in Calm     54% 0.00 in
08:29 48.0 °F 30.7 °F 30.30 in Calm     51% 0.00 in
08:34 48.7 °F 30.9 °F 30.30 in Calm     50% 0.00 in
08:39 49.3 °F 30.4 °F 30.30 in Calm     48% 0.00 in
08:44 49.9 °F 29.9 °F 30.30 in Calm     46% 0.00 in
08:49 50.4 °F 28.7 °F 30.30 in Calm     43% 0.00 in
08:54 50.9 °F 29.2 °F 30.31 in Calm     43% 0.00 in
08:59 51.6 °F 28.0 °F 30.31 in Calm     40% 0.00 in
09:04 52.2 °F 26.7 °F 30.31 in East 1.1 mph 1.1 mph 37% 0.00 in
09:09 52.8 °F 27.2 °F 30.31 in ENE 1.1 mph   37% 0.00 in
09:14 53.1 °F 26.8 °F 30.31 in ENE 2.3 mph 2.3 mph 36% 0.00 in
09:19 53.7 °F 26.7 °F 30.31 in ENE 1.1 mph 1.1 mph 35% 0.00 in
09:24 54.1 °F 27.0 °F 30.31 in NE 1.1 mph   35% 0.00 in
09:29 54.4 °F 26.6 °F 30.31 in Calm   0.1 mph 34% 0.00 in
09:34 54.5 °F 26.7 °F 30.31 in Calm     34% 0.00 in
09:39 55.1 °F 26.5 °F 30.31 in SW 1.1 mph   33% 0.00 in
09:44 55.5 °F 26.8 °F 30.31 in SSW 1.1 mph 1.1 mph 33% 0.00 in
09:49 55.9 °F 27.2 °F 30.31 in North 2.3 mph 2.3 mph 33% 0.00 in
09:54 56.0 °F 27.3 °F 30.31 in NE 1.1 mph   33% 0.00 in
10:08 57.4 °F 27.7 °F 30.32 in NNW 2.3 mph 2.3 mph 32% 0.00 in
10:13 58.0 °F 28.3 °F 30.32 in East 2.3 mph 2.3 mph 32% 0.00 in
10:18 58.5 °F 27.9 °F 30.32 in East 2.3 mph 2.3 mph 31% 0.00 in
10:23 59.0 °F 28.4 °F 30.32 in ENE 1.1 mph 1.1 mph 31% 0.00 in
10:28 59.6 °F 28.9 °F 30.32 in NNW 3.5 mph 3.5 mph 31% 0.00 in
10:33 60.0 °F 30.0 °F 30.31 in SSW 1.0 mph 1.0 mph 32% 0.00 in
10:38 60.5 °F 30.5 °F 30.31 in North 2.3 mph 2.3 mph 32% 0.00 in
10:43 61.0 °F 29.3 °F 30.31 in NW 2.0 mph 2.0 mph 30% 0.00 in
10:48 61.4 °F 28.8 °F 30.31 in North 1.1 mph 1.1 mph 29% 0.00 in
10:53 61.7 °F 29.1 °F 30.31 in WSW 1.1 mph 1.1 mph 29% 0.00 in
10:58 62.4 °F 31.3 °F 30.31 in West 2.3 mph 2.3 mph 31% 0.00 in
11:03 63.0 °F 31.9 °F 30.31 in ENE 1.1 mph 1.1 mph 31% 0.00 in
11:08 63.5 °F 33.9 °F 30.31 in East 1.1 mph   33% 0.00 in
11:13 64.2 °F 31.3 °F 30.31 in NW 2.0 mph 2.0 mph 29% 0.00 in
11:18 64.3 °F 30.5 °F 30.31 in NW 1.1 mph 1.1 mph 28% 0.00 in
11:23 64.5 °F 29.7 °F 30.31 in ENE 1.1 mph   27% 0.00 in
11:28 64.9 °F 31.0 °F 30.31 in ENE 3.5 mph 3.5 mph 28% 0.00 in
11:33 65.0 °F 31.9 °F 30.31 in NNW 2.3 mph 2.3 mph 29% 0.00 in
11:38 65.5 °F 30.6 °F 30.31 in West 1.1 mph 1.1 mph 27% 0.00 in
11:43 66.7 °F 33.4 °F 30.31 in NNE 1.1 mph 1.1 mph 29% 0.00 in
11:48 66.9 °F 32.7 °F 30.31 in WNW 1.1 mph 1.1 mph 28% 0.00 in
11:53 67.7 °F 30.6 °F 30.30 in ESE 1.1 mph 1.1 mph 25% 0.00 in
11:58 68.1 °F 33.7 °F 30.30 in NW 2.3 mph 2.3 mph 28% 0.00 in
12:03 68.5 °F 33.2 °F 30.30 in North 2.3 mph 2.3 mph 27% 0.00 in
12:08 68.9 °F 31.6 °F 30.30 in NNW 2.3 mph 2.3 mph 25% 0.00 in
12:13 69.1 °F 30.8 °F 30.30 in WSW 1.1 mph 1.1 mph 24% 0.00 in
12:18 69.2 °F 31.9 °F 30.30 in WNW 2.0 mph 2.0 mph 25% 0.00 in
12:23 69.4 °F 31.0 °F 30.30 in WNW 3.5 mph 3.5 mph 24% 0.00 in
12:28 70.0 °F 30.5 °F 30.30 in West 2.3 mph 2.3 mph 23% 0.00 in
12:33 70.3 °F 32.8 °F 30.29 in Calm     25% 0.00 in
12:38 70.7 °F 33.1 °F 30.29 in North 4.6 mph 4.6 mph 25% 0.00 in
12:44 70.5 °F 30.9 °F 30.29 in East 2.3 mph 2.3 mph 23% 0.00 in
12:49 70.8 °F 30.0 °F 30.29 in NE 1.1 mph 1.1 mph 22% 0.00 in
12:54 71.0 °F 32.4 °F 30.29 in NW 3.5 mph 3.5 mph 24% 0.00 in
12:59 71.2 °F 28.0 °F 30.28 in SSW 2.3 mph 2.3 mph 20% 0.00 in
13:04 71.0 °F 27.9 °F 30.28 in WNW 3.5 mph 3.5 mph 20% 0.00 in
13:09 71.2 °F 31.5 °F 30.28 in Calm     23% 0.00 in
13:14 72.0 °F 31.0 °F 30.28 in NNW 3.5 mph 3.5 mph 22% 0.00 in
13:19 72.4 °F 32.5 °F 30.28 in NW 2.3 mph 2.3 mph 23% 0.00 in
13:24 72.6 °F 30.4 °F 30.28 in NNE 4.6 mph 4.6 mph 21% 0.00 in
13:29 72.7 °F 31.6 °F 30.28 in WNW 3.5 mph 3.5 mph 22% 0.00 in
13:34 72.9 °F 31.8 °F 30.27 in East 2.3 mph 2.3 mph 22% 0.00 in
13:39 72.9 °F 34.0 °F 30.27 in South 2.3 mph 2.3 mph 24% 0.00 in
13:45 73.4 °F 32.2 °F 30.27 in North 1.1 mph 1.1 mph 22% 0.00 in
13:50 73.7 °F 32.5 °F 30.27 in WSW 1.1 mph 1.1 mph 22% 0.00 in
13:55 73.6 °F 28.8 °F 30.27 in WSW 2.3 mph 2.3 mph 19% 0.00 in
14:00 74.0 °F 32.7 °F 30.27 in West 3.5 mph 3.5 mph 22% 0.00 in
14:05 74.0 °F 29.1 °F 30.27 in SW 1.1 mph   19% 0.00 in
14:10 74.5 °F 26.8 °F 30.26 in WNW 2.3 mph 2.3 mph 17% 0.00 in
14:15 74.4 °F 26.7 °F 30.26 in SSW 1.1 mph 1.1 mph 17% 0.00 in
14:20 75.0 °F 25.7 °F 30.26 in SSW 2.3 mph 2.3 mph 16% 0.00 in
14:25 75.4 °F 21.1 °F 30.26 in South 3.5 mph 3.5 mph 13% 0.00 in
14:30 75.5 °F 17.3 °F 30.26 in SSW 3.5 mph 3.5 mph 11% 0.00 in
14:35 75.5 °F 19.3 °F 30.26 in North 3.5 mph 3.5 mph 12% 0.00 in
14:40 75.2 °F 20.9 °F 30.26 in WNW 3.5 mph 3.5 mph 13% 0.00 in
14:45 75.2 °F 24.3 °F 30.26 in ENE 1.1 mph 1.1 mph 15% 0.00 in
14:50 75.4 °F 21.1 °F 30.26 in NE 2.3 mph 2.3 mph 13% 0.00 in
14:55 75.2 °F 22.7 °F 30.26 in NNW 5.0 mph 5.0 mph 14% 0.00 in
15:00 74.8 °F 16.7 °F 30.25 in WNW 2.3 mph 2.3 mph 11% 0.00 in
15:05 75.1 °F 22.6 °F 30.25 in WNW 1.1 mph 1.1 mph 14% 0.00 in
15:10 75.5 °F 17.3 °F 30.25 in WNW 3.5 mph 3.5 mph 11% 0.00 in
15:15 75.5 °F 15.1 °F 30.25 in North 3.5 mph 3.5 mph 10% 0.00 in
15:20 75.2 °F 17.0 °F 30.25 in WNW 1.1 mph   11% 0.00 in
15:25 76.2 °F 15.6 °F 30.25 in Calm     10% 0.00 in
15:30 76.8 °F 13.6 °F 30.25 in NW 2.0 mph 2.0 mph 9% 0.00 in
15:35 76.4 °F 15.7 °F 30.25 in WNW 2.3 mph 2.3 mph 10% 0.00 in
15:40 76.6 °F 18.1 °F 30.25 in West 3.5 mph 3.5 mph 11% 0.00 in
15:45 76.5 °F 18.0 °F 30.25 in SSE 2.3 mph 2.3 mph 11% 0.00 in
15:47 76.5 °F 15.8 °F 30.25 in West 3.5 mph 3.5 mph 10% 0.00 in
15:52 76.6 °F 18.1 °F 30.25 in SSE 1.1 mph 1.1 mph 11% 0.00 in
15:57 76.8 °F 20.3 °F 30.24 in ESE 2.3 mph 2.3 mph 12% 0.00 in
16:02 76.8 °F 20.3 °F 30.25 in SW 2.3 mph 2.3 mph 12% 0.00 in
16:07 76.2 °F 21.7 °F 30.25 in North 2.3 mph   13% 0.00 in
16:12 76.0 °F 19.7 °F 30.25 in WNW 1.1 mph 1.1 mph 12% 0.00 in
16:17 75.5 °F 17.3 °F 30.25 in ESE 2.3 mph 2.3 mph 11% 0.00 in
16:22 75.2 °F 19.1 °F 30.25 in West 2.3 mph 2.3 mph 12% 0.00 in
16:27 75.0 °F 16.9 °F 30.25 in WNW 2.3 mph 2.3 mph 11% 0.00 in
16:33 75.1 °F 20.9 °F 30.25 in WSW 1.1 mph   13% 0.00 in
16:38 75.1 °F 22.6 °F 30.24 in NNW 1.1 mph 1.1 mph 14% 0.00 in
16:43 75.4 °F 19.2 °F 30.24 in West 1.1 mph 1.1 mph 12% 0.00 in
16:48 74.8 °F 18.7 °F 30.24 in West 1.1 mph 1.1 mph 12% 0.00 in
16:53 74.5 °F 20.4 °F 30.25 in NW 1.1 mph 1.1 mph 13% 0.00 in
16:58 73.9 °F 21.7 °F 30.25 in WNW 1.1 mph 1.1 mph 14% 0.00 in
17:03 73.0 °F 22.6 °F 30.25 in North 1.1 mph 1.1 mph 15% 0.00 in
17:08 72.1 °F 21.9 °F 30.25 in Calm     15% 0.00 in
17:13 71.3 °F 22.7 °F 30.25 in Calm     16% 0.00 in
17:18 70.5 °F 22.1 °F 30.25 in Calm     16% 0.00 in
17:23 69.9 °F 23.1 °F 30.26 in Calm     17% 0.00 in
17:28 69.4 °F 24.0 °F 30.25 in Calm     18% 0.00 in
17:33 68.8 °F 23.5 °F 30.25 in WNW 1.1 mph 1.1 mph 18% 0.00 in
17:38 68.3 °F 24.4 °F 30.25 in WNW 1.1 mph 1.1 mph 19% 0.00 in
17:43 68.0 °F 25.4 °F 30.26 in NW 1.1 mph 1.1 mph 20% 0.00 in
17:48 67.6 °F 26.2 °F 30.25 in Calm   0.1 mph 21% 0.00 in
17:53 67.1 °F 26.9 °F 30.25 in West 1.1 mph 1.1 mph 22% 0.00 in
17:58 66.6 °F 26.5 °F 30.25 in Calm     22% 0.00 in
18:03 66.0 °F 27.1 °F 30.26 in Calm     23% 0.00 in
18:08 65.4 °F 27.6 °F 30.26 in Calm     24% 0.00 in
18:13 64.6 °F 27.9 °F 30.26 in Calm     25% 0.00 in
18:18 63.7 °F 29.1 °F 30.26 in Calm     27% 0.00 in
18:23 62.8 °F 28.3 °F 30.26 in Calm     27% 0.00 in
18:28 62.0 °F 29.3 °F 30.26 in Calm     29% 0.00 in
18:33 61.2 °F 29.5 °F 30.26 in Calm     30% 0.00 in
18:38 60.4 °F 28.8 °F 30.27 in Calm     30% 0.00 in
18:43 59.6 °F 28.9 °F 30.27 in Calm     31% 0.00 in
18:48 58.9 °F 29.8 °F 30.27 in Calm     33% 0.00 in
18:53 58.0 °F 29.0 °F 30.27 in Calm     33% 0.00 in
18:58 57.5 °F 30.7 °F 30.27 in Calm     36% 0.00 in
19:03 57.1 °F 30.4 °F 30.27 in Calm     36% 0.00 in
19:08 56.9 °F 30.9 °F 30.27 in Calm     37% 0.00 in
19:13 57.4 °F 29.9 °F 30.27 in Calm     35% 0.00 in
19:18 57.6 °F 29.4 °F 30.27 in Calm     34% 0.00 in
19:23 57.6 °F 29.4 °F 30.27 in Calm     34% 0.00 in
19:28 57.2 °F 30.5 °F 30.28 in Calm     36% 0.00 in
19:33 56.5 °F 30.5 °F 30.28 in Calm     37% 0.00 in
19:38 55.7 °F 31.1 °F 30.28 in Calm     39% 0.00 in
19:43 54.9 °F 30.4 °F 30.28 in Calm     39% 0.00 in
19:48 54.1 °F 31.5 °F 30.29 in Calm     42% 0.00 in
19:53 53.4 °F 32.0 °F 30.29 in Calm     44% 0.00 in
19:58 52.9 °F 32.1 °F 30.29 in Calm     45% 0.00 in
20:03 52.3 °F 32.1 °F 30.29 in Calm     46% 0.00 in
20:08 51.7 °F 31.6 °F 30.29 in Calm     46% 0.00 in
20:13 51.5 °F 31.9 °F 30.29 in Calm     47% 0.00 in
20:18 51.3 °F 32.3 °F 30.29 in Calm     48% 0.00 in
20:23 50.9 °F 31.9 °F 30.29 in Calm     48% 0.00 in
20:28 50.4 °F 30.9 °F 30.29 in Calm     47% 0.00 in
20:33 50.0 °F 31.1 °F 30.29 in Calm     48% 0.00 in
20:38 49.6 °F 30.7 °F 30.29 in Calm     48% 0.00 in
20:43 49.5 °F 30.6 °F 30.30 in Calm     48% 0.00 in
20:48 49.3 °F 31.4 °F 30.29 in Calm     50% 0.00 in
20:53 49.2 °F 32.3 °F 30.29 in Calm     52% 0.00 in
20:58 49.0 °F 32.1 °F 30.30 in Calm     52% 0.00 in
21:00 48.9 °F 32.0 °F 30.30 in Calm     52% 0.00 in
21:02 48.8 °F 31.9 °F 30.30 in Calm     52% 0.00 in
21:07 48.7 °F 32.3 °F 30.30 in Calm     53% 0.00 in
21:12 48.8 °F 32.4 °F 30.30 in Calm     53% 0.00 in
21:17 49.2 °F 32.3 °F 30.30 in Calm     52% 0.00 in
21:22 49.1 °F 31.7 °F 30.30 in Calm     51% 0.00 in
21:27 48.7 °F 31.8 °F 30.30 in Calm     52% 0.00 in
21:32 48.2 °F 31.9 °F 30.31 in Calm     53% 0.00 in
21:37 47.7 °F 31.9 °F 30.30 in Calm     54% 0.00 in
21:42 47.5 °F 32.1 °F 30.30 in Calm     55% 0.00 in
21:47 47.4 °F 33.4 °F 30.30 in Calm     58% 0.00 in
21:52 47.2 °F 33.6 °F 30.31 in Calm     59% 0.00 in
21:57 46.8 °F 33.2 °F 30.30 in Calm     59% 0.00 in
22:02 46.4 °F 32.8 °F 30.30 in Calm     59% 0.00 in
22:07 46.3 °F 32.7 °F 30.30 in Calm     59% 0.00 in
22:12 46.1 °F 33.0 °F 30.30 in Calm     60% 0.00 in
22:17 46.1 °F 33.4 °F 30.30 in Calm     61% 0.00 in
22:22 46.0 °F 33.7 °F 30.30 in Calm     62% 0.00 in
22:27 45.9 °F 33.2 °F 30.31 in Calm     61% 0.00 in
22:33 45.6 °F 33.3 °F 30.31 in Calm     62% 0.00 in
22:38 45.4 °F 33.5 °F 30.31 in Calm     63% 0.00 in
22:43 45.4 °F 35.1 °F 30.31 in Calm     67% 0.00 in
22:48 45.3 °F 33.8 °F 30.31 in Calm     64% 0.00 in
22:53 45.0 °F 34.3 °F 30.31 in Calm     66% 0.00 in
22:58 44.6 °F 33.6 °F 30.31 in Calm     65% 0.00 in
23:03 44.3 °F 33.3 °F 30.31 in Calm     65% 0.00 in
23:08 44.3 °F 32.9 °F 30.31 in Calm     64% 0.00 in
23:13 44.5 °F 32.7 °F 30.31 in Calm     63% 0.00 in
23:18 44.6 °F 32.4 °F 30.31 in Calm     62% 0.00 in
23:23 44.4 °F 32.6 °F 30.31 in Calm     63% 0.00 in
23:28 44.1 °F 32.3 °F 30.31 in Calm     63% 0.00 in
23:33 43.8 °F 32.4 °F 30.31 in Calm     64% 0.00 in
23:38 43.7 °F 32.7 °F 30.32 in Calm     65% 0.00 in
23:43 43.7 °F 32.7 °F 30.31 in Calm     65% 0.00 in
23:48 43.8 °F 32.8 °F 30.31 in Calm     65% 0.00 in
23:53 43.8 °F 32.8 °F 30.31 in Calm     65% 0.00 in
23:58 43.7 °F 32.7 °F 30.31 in Calm     65% 0.00 in
Compliments of Weather Underground